Time;durP1;ratioP1;P1;durP2;ratioP2;P2;SDS_P1;SDS_P2;PMS_P1;PMS_P2;Temp;Humidity;BMP_temperature;BMP_pressure;BME280_temperature;BME280_humidity;BME280_pressure;Samples;Min_cycle;Max_cycle;Signal;HPM_P1;HPM_P2
2023/12/01 00:00:33;;;;;;;40.80;19.23;;;-0.80;99.90;;;;;;4981767;28;20145;-84
2023/12/01 00:02:59;;;;;;;36.85;16.52;;;0.50;99.90;;;;;;4993965;28;20109;-84
2023/12/01 00:05:24;;;;;;;29.95;14.20;;;-0.70;99.90;;;;;;4993995;28;20058;-84
2023/12/01 00:07:50;;;;;;;40.25;15.35;;;-0.10;99.90;;;;;;4994104;28;20384;-83
2023/12/01 00:10:16;;;;;;;31.73;16.15;;;-0.80;99.90;;;;;;4995080;28;20057;-84
2023/12/01 00:12:42;;;;;;;36.65;16.10;;;-0.80;99.90;;;;;;4995262;28;20038;-84
2023/12/01 00:15:08;;;;;;;37.72;16.08;;;-0.80;99.90;;;;;;4993289;28;20038;-84
2023/12/01 00:17:33;;;;;;;38.83;16.33;;;-0.90;99.90;;;;;;4994151;28;20407;-84
2023/12/01 00:19:59;;;;;;;36.15;16.15;;;-0.70;99.90;;;;;;4977744;28;20041;-84
2023/12/01 00:22:25;;;;;;;33.67;15.27;;;-0.90;99.90;;;;;;4993554;28;20065;-84
2023/12/01 00:24:51;;;;;;;39.53;16.23;;;-1.00;99.90;;;;;;4993858;28;20042;-84
2023/12/01 00:27:17;;;;;;;34.72;15.73;;;-1.00;99.90;;;;;;4993349;28;20050;-84
2023/12/01 00:29:43;;;;;;;29.63;14.25;;;-1.00;99.90;;;;;;4993203;28;20074;-84
2023/12/01 00:32:08;;;;;;;35.72;16.67;;;-1.10;99.90;;;;;;4994980;28;20039;-84
2023/12/01 00:34:34;;;;;;;36.45;16.50;;;-1.10;99.90;;;;;;4977140;28;20045;-84
2023/12/01 00:37:01;;;;;;;36.25;17.40;;;-1.10;99.90;;;;;;4994672;28;20101;-85
2023/12/01 00:39:27;;;;;;;40.50;16.75;;;-1.10;99.90;;;;;;4977270;28;20041;-84
2023/12/01 00:41:53;;;;;;;40.45;18.17;;;-1.10;99.90;;;;;;4994567;28;20053;-84
2023/12/01 00:44:18;;;;;;;41.45;18.85;;;-1.10;99.90;;;;;;4994681;28;20384;-84
2023/12/01 00:46:44;;;;;;;39.85;17.67;;;-1.10;99.90;;;;;;4992904;28;20041;-84
2023/12/01 00:49:11;;;;;;;43.30;18.30;;;-1.10;99.90;;;;;;4993489;28;20133;-84
2023/12/01 00:51:41;;;;;;;38.17;17.67;;;-1.10;99.90;;;;;;4993057;28;20046;-84
2023/12/01 00:54:07;;;;;;;39.17;17.27;;;0.40;99.90;;;;;;4992911;28;20193;-83
2023/12/01 00:56:33;;;;;;;43.83;17.40;;;-1.20;99.90;;;;;;4992704;28;20066;-84
2023/12/01 00:58:58;;;;;;;40.67;17.35;;;-1.20;99.90;;;;;;4994034;28;20069;-84
2023/12/01 01:01:24;;;;;;;41.55;16.48;;;-1.20;99.90;;;;;;5005888;28;20058;-84
2023/12/01 01:03:50;;;;;;;42.67;18.05;;;-0.60;99.90;;;;;;5013662;28;20168;-83
2023/12/01 01:06:16;;;;;;;41.88;17.98;;;-1.30;99.90;;;;;;5013828;28;20097;-84
2023/12/01 01:08:41;;;;;;;47.20;18.42;;;-1.60;99.90;;;;;;4995604;28;20046;-84
2023/12/01 01:11:07;;;;;;;42.35;17.17;;;-0.60;99.90;;;;;;4995780;28;20054;-85
2023/12/01 01:13:33;;;;;;;39.55;17.60;;;-1.20;99.90;;;;;;4995789;28;20045;-84
2023/12/01 01:15:59;;;;;;;38.50;16.67;;;-1.80;99.90;;;;;;4995799;28;20072;-84
2023/12/01 01:18:25;;;;;;;47.00;18.77;;;-1.40;99.90;;;;;;4995768;28;20042;-84
2023/12/01 01:20:51;;;;;;;48.60;19.38;;;-1.40;99.90;;;;;;5013607;28;20096;-84
2023/12/01 01:23:17;;;;;;;42.33;19.23;;;-0.80;99.90;;;;;;5013407;28;20486;-84
2023/12/01 01:25:42;;;;;;;45.13;18.40;;;-0.50;99.90;;;;;;4995822;28;20092;-84
2023/12/01 01:28:08;;;;;;;43.38;17.42;;;-0.60;99.90;;;;;;4995001;28;20104;-84
2023/12/01 01:30:34;;;;;;;46.53;19.23;;;-0.90;99.90;;;;;;4995818;28;20042;-85
2023/12/01 01:32:59;;;;;;;49.33;19.08;;;-0.60;99.90;;;;;;4997145;28;20380;-84
2023/12/01 01:35:25;;;;;;;43.08;17.00;;;-1.40;99.90;;;;;;4976064;28;20085;-84
2023/12/01 01:37:51;;;;;;;43.45;16.73;;;-1.50;99.90;;;;;;4993639;28;20398;-84
2023/12/01 01:40:17;;;;;;;43.40;17.42;;;-0.80;99.90;;;;;;4976160;28;20463;-84
2023/12/01 01:42:43;;;;;;;41.67;17.85;;;-1.50;99.90;;;;;;4989011;28;20046;-84
2023/12/01 01:45:09;;;;;;;47.10;17.33;;;-1.50;99.90;;;;;;4995425;28;20081;-84
2023/12/01 01:47:35;;;;;;;40.30;16.88;;;-1.50;99.90;;;;;;5001792;28;20436;-84
2023/12/01 01:50:07;;;;;;;41.40;16.27;;;-1.60;99.90;;;;;;4994513;28;20082;-84
2023/12/01 01:52:35;;;;;;;48.47;19.15;;;-1.60;99.90;;;;;;4976094;28;20046;-85
2023/12/01 01:55:01;;;;;;;39.38;17.23;;;-1.60;99.90;;;;;;4993503;28;20046;-84
2023/12/01 01:57:28;;;;;;;40.47;16.27;;;-1.30;99.90;;;;;;4993301;28;20042;-84
2023/12/01 01:59:54;;;;;;;43.45;16.63;;;-1.70;99.90;;;;;;4992891;28;20055;-85
2023/12/01 02:02:20;;;;;;;46.20;18.13;;;-1.30;99.90;;;;;;4989776;28;20059;-84
2023/12/01 02:04:45;;;;;;;43.45;18.00;;;0.00;99.90;;;;;;4994721;28;20127;-84
2023/12/01 02:07:27;;;;;;;43.08;17.65;;;-1.80;99.90;;;;;;5011795;28;20398;-84
2023/12/01 02:09:54;;;;;;;41.05;16.02;;;-1.70;99.90;;;;;;4994611;28;20042;-84
2023/12/01 02:12:20;;;;;;;42.38;17.20;;;-1.90;99.90;;;;;;4978075;28;20092;-84
2023/12/01 02:14:46;;;;;;;42.75;16.33;;;-1.90;99.90;;;;;;4994035;28;20050;-84
2023/12/01 02:17:11;;;;;;;42.65;17.33;;;-0.30;99.90;;;;;;4994838;28;20057;-84
2023/12/01 02:19:38;;;;;;;39.67;16.02;;;-1.80;99.90;;;;;;4994976;28;20054;-85
2023/12/01 02:22:05;;;;;;;39.20;16.08;;;-1.20;99.90;;;;;;4978446;28;20057;-84
2023/12/01 02:24:31;;;;;;;37.28;16.25;;;-2.20;99.90;;;;;;4995311;28;20047;-83
2023/12/01 02:26:57;;;;;;;41.65;16.33;;;-2.10;99.90;;;;;;5002897;28;20057;-84
2023/12/01 02:29:22;;;;;;;35.45;14.63;;;-2.10;99.90;;;;;;4991536;28;20046;-84
2023/12/01 02:31:48;;;;;;;33.65;14.43;;;-2.20;99.90;;;;;;4993163;28;20125;-84
2023/12/01 02:34:14;;;;;;;36.67;15.40;;;-0.70;99.90;;;;;;4993023;28;20074;-84
2023/12/01 02:36:39;;;;;;;35.42;15.65;;;-2.40;99.90;;;;;;5012375;28;20057;-84
2023/12/01 02:39:07;;;;;;;37.10;15.68;;;-2.30;99.90;;;;;;4994716;28;20042;-84
2023/12/01 02:41:33;;;;;;;36.00;14.68;;;-1.10;99.90;;;;;;5012616;28;20100;-84
2023/12/01 02:43:59;;;;;;;37.28;15.35;;;-2.30;99.90;;;;;;5012419;28;20073;-84
2023/12/01 02:46:24;;;;;;;37.90;14.85;;;-2.40;99.90;;;;;;5012369;28;20057;-85
2023/12/01 02:48:50;;;;;;;33.13;15.25;;;-2.80;99.90;;;;;;4994558;28;20321;-84
2023/12/01 02:51:16;;;;;;;32.05;13.50;;;-2.10;99.90;;;;;;4994276;28;20037;-84
2023/12/01 02:53:42;;;;;;;35.20;14.77;;;-2.50;99.90;;;;;;4994667;28;20497;-84
2023/12/01 02:56:08;;;;;;;36.45;15.02;;;-2.20;99.90;;;;;;4994616;28;20056;-84
2023/12/01 02:58:34;;;;;;;33.92;14.07;;;-2.60;99.90;;;;;;4994568;28;20045;-85
2023/12/01 03:01:00;;;;;;;38.00;15.43;;;-2.60;99.90;;;;;;4991218;28;20061;-84
2023/12/01 03:03:25;;;;;;;33.08;13.82;;;-1.60;99.90;;;;;;4992700;28;20381;-84
2023/12/01 03:05:51;;;;;;;31.63;13.52;;;-1.80;99.90;;;;;;4986322;28;20053;-85
2023/12/01 03:08:17;;;;;;;36.42;15.52;;;-1.80;99.90;;;;;;4975226;28;20093;-84
2023/12/01 03:10:43;;;;;;;36.53;14.90;;;-2.60;99.90;;;;;;4991521;28;20137;-84
2023/12/01 03:13:08;;;;;;;31.77;13.68;;;-2.70;99.90;;;;;;4992715;28;20081;-84
2023/12/01 03:15:34;;;;;;;31.08;14.10;;;-1.50;99.90;;;;;;4991517;28;20046;-84
2023/12/01 03:18:00;;;;;;;37.13;14.23;;;-2.10;99.90;;;;;;4991496;28;20050;-83
2023/12/01 03:20:27;;;;;;;29.77;13.45;;;-2.80;99.90;;;;;;4992908;28;20042;-84
2023/12/01 03:22:53;;;;;;;32.72;14.15;;;-1.90;99.90;;;;;;4994434;28;20082;-84
2023/12/01 03:25:19;;;;;;;33.13;12.80;;;-2.80;99.90;;;;;;4996115;28;20046;-84
2023/12/01 03:27:46;;;;;;;36.42;14.73;;;-2.70;99.90;;;;;;4994942;28;20044;-84
2023/12/01 03:30:14;;;;;;;30.52;13.65;;;-2.80;99.90;;;;;;4995786;28;20061;-84
2023/12/01 03:32:47;;;;;;;31.85;13.25;;;-2.90;99.90;;;;;;4994508;28;20096;-84
2023/12/01 03:35:17;;;;;;;27.90;12.40;;;-2.90;99.90;;;;;;4993899;28;20042;-85
2023/12/01 03:37:44;;;;;;;30.40;13.82;;;-2.20;99.90;;;;;;4983760;28;20046;-84
2023/12/01 03:40:12;;;;;;;33.25;13.85;;;-2.90;99.90;;;;;;4976231;28;20106;-85
2023/12/01 03:42:45;;;;;;;32.10;13.60;;;-3.00;99.90;;;;;;4975004;28;20078;-84
2023/12/01 03:45:12;;;;;;;33.25;13.27;;;-3.00;99.90;;;;;;4974904;28;20062;-84
2023/12/01 03:47:42;;;;;;;34.90;13.48;;;-3.00;99.90;;;;;;4974798;28;20511;-84
2023/12/01 03:50:11;;;;;;;29.70;12.75;;;-3.10;99.90;;;;;;4972452;28;20073;-84
2023/12/01 03:52:43;;;;;;;32.67;14.45;;;-3.10;99.90;;;;;;4993674;28;20041;-83
2023/12/01 03:55:10;;;;;;;31.60;12.73;;;-3.20;99.90;;;;;;4994970;28;20046;-84
2023/12/01 03:57:37;;;;;;;29.02;12.90;;;-3.20;99.90;;;;;;4993644;28;20053;-85
2023/12/01 04:00:08;;;;;;;27.95;11.90;;;-3.20;99.90;;;;;;4975973;28;20046;-84
2023/12/01 04:02:37;;;;;;;30.58;12.43;;;-3.20;99.90;;;;;;4958566;28;20178;-83
2023/12/01 04:05:04;;;;;;;27.50;12.75;;;-3.30;99.90;;;;;;4958718;28;20543;-83
2023/12/01 04:07:29;;;;;;;30.80;13.30;;;-3.30;99.90;;;;;;4965714;28;20050;-83
2023/12/01 04:09:55;;;;;;;33.22;13.57;;;-2.80;99.90;;;;;;4995246;28;20046;-83
2023/12/01 04:12:21;;;;;;;33.15;13.60;;;-3.40;99.90;;;;;;4995075;28;20049;-84
2023/12/01 04:14:46;;;;;;;33.28;13.40;;;-3.50;99.90;;;;;;4995306;28;20039;-83
2023/12/01 04:17:13;;;;;;;31.40;12.65;;;-3.40;99.90;;;;;;4995301;28;20042;-83
2023/12/01 04:19:39;;;;;;;32.17;13.05;;;-3.50;99.90;;;;;;4977734;28;20046;-84
2023/12/01 04:22:05;;;;;;;33.00;12.73;;;-3.50;99.90;;;;;;4976771;28;20035;-83
2023/12/01 04:24:34;;;;;;;33.75;14.60;;;-1.20;99.90;;;;;;4994828;28;20499;-83
2023/12/01 04:27:07;;;;;;;32.97;13.75;;;-2.80;99.90;;;;;;4961339;28;20093;-83
2023/12/01 04:29:33;;;;;;;36.13;14.60;;;-3.60;99.90;;;;;;4977568;28;20069;-83
2023/12/01 04:31:59;;;;;;;35.00;13.23;;;-3.60;99.90;;;;;;4994545;28;20042;-84
2023/12/01 04:34:26;;;;;;;35.63;13.05;;;-3.60;99.90;;;;;;4961650;28;20055;-83
2023/12/01 04:36:53;;;;;;;36.10;14.75;;;-3.70;99.90;;;;;;4981202;28;20503;-84
2023/12/01 04:39:20;;;;;;;32.58;13.65;;;-3.60;99.90;;;;;;4960778;28;20046;-84
2023/12/01 04:41:50;;;;;;;28.50;13.60;;;-3.60;99.90;;;;;;4982014;28;20067;-83
2023/12/01 04:44:15;;;;;;;34.03;12.25;;;-3.70;99.90;;;;;;4957711;28;20045;-84
2023/12/01 04:46:41;;;;;;;30.85;12.95;;;-2.50;99.90;;;;;;4941675;28;20412;-84
2023/12/01 04:49:08;;;;;;;30.85;11.57;;;-3.70;99.90;;;;;;4975122;28;20094;-84
2023/12/01 04:51:37;;;;;;;32.75;13.77;;;-3.70;99.90;;;;;;4957801;28;20396;-84
2023/12/01 04:54:05;;;;;;;30.13;11.95;;;-3.30;99.90;;;;;;4957516;28;20131;-83
2023/12/01 04:56:31;;;;;;;32.80;13.30;;;-3.80;99.90;;;;;;4987350;28;20117;-83
2023/12/01 04:58:57;;;;;;;32.50;13.20;;;-4.00;99.90;;;;;;4976817;28;20046;-84
2023/12/01 05:01:22;;;;;;;30.52;12.82;;;-4.00;99.90;;;;;;5003943;28;20046;-84
2023/12/01 05:03:48;;;;;;;33.03;12.75;;;-4.00;99.90;;;;;;4996094;28;20045;-83
2023/12/01 05:06:14;;;;;;;35.65;13.45;;;-4.00;99.90;;;;;;5013696;28;20064;-83
2023/12/01 05:08:39;;;;;;;37.70;13.85;;;-4.00;99.90;;;;;;4987065;28;20379;-83
2023/12/01 05:11:05;;;;;;;40.30;15.20;;;-4.00;99.90;;;;;;5010935;28;20393;-83
2023/12/01 05:13:31;;;;;;;34.55;14.20;;;-4.00;99.90;;;;;;4996105;28;20093;-83
2023/12/01 05:15:56;;;;;;;37.13;14.52;;;-4.00;99.90;;;;;;4979693;28;20058;-84
2023/12/01 05:18:22;;;;;;;35.30;13.98;;;-4.50;99.90;;;;;;4979587;28;20052;-83
2023/12/01 05:20:48;;;;;;;38.47;14.68;;;-4.20;99.90;;;;;;5008547;28;20042;-83
2023/12/01 05:23:14;;;;;;;35.60;13.68;;;-2.70;99.90;;;;;;4995208;28;20045;-83
2023/12/01 05:25:44;;;;;;;33.03;13.48;;;-4.20;99.90;;;;;;4991005;28;20076;-83
2023/12/01 05:28:11;;;;;;;41.25;14.40;;;-3.00;99.90;;;;;;4976177;28;20395;-83
2023/12/01 05:30:41;;;;;;;36.63;14.45;;;-4.20;99.90;;;;;;5007498;28;20046;-83
2023/12/01 05:33:08;;;;;;;39.67;15.52;;;-4.20;99.90;;;;;;5013334;28;20121;-83
2023/12/01 05:35:37;;;;;;;36.20;14.02;;;-3.20;99.90;;;;;;4995683;28;20045;-83
2023/12/01 05:38:04;;;;;;;38.97;15.50;;;-4.20;99.90;;;;;;5012860;28;20127;-84
2023/12/01 05:40:35;;;;;;;37.00;15.77;;;-4.30;99.90;;;;;;5012943;28;20107;-83
2023/12/01 05:43:02;;;;;;;37.78;15.18;;;-4.30;99.90;;;;;;4994000;28;20168;-83
2023/12/01 05:45:29;;;;;;;35.83;14.90;;;-4.30;99.90;;;;;;5013253;28;20399;-83
2023/12/01 05:47:56;;;;;;;40.15;14.95;;;-4.30;99.90;;;;;;4994892;28;20058;-83
2023/12/01 05:50:25;;;;;;;37.28;14.38;;;-4.30;99.90;;;;;;4994977;28;20048;-83
2023/12/01 05:52:53;;;;;;;38.67;14.43;;;-4.30;99.90;;;;;;4979004;28;20133;-84
2023/12/01 05:55:21;;;;;;;37.35;14.35;;;-4.30;99.90;;;;;;5012886;28;20056;-83
2023/12/01 05:57:48;;;;;;;35.88;15.48;;;-4.30;99.90;;;;;;4995187;28;20042;-83
2023/12/01 06:00:17;;;;;;;32.63;12.80;;;-4.40;99.90;;;;;;4995025;28;20132;-83
2023/12/01 06:02:52;;;;;;;36.40;14.60;;;-4.40;99.90;;;;;;5012237;28;20054;-84
2023/12/01 06:05:20;;;;;;;34.35;13.00;;;-4.40;99.90;;;;;;4975923;28;20042;-83
2023/12/01 06:07:51;;;;;;;32.40;13.38;;;-4.40;99.90;;;;;;4982933;28;20217;-83
2023/12/01 06:10:18;;;;;;;36.47;14.15;;;-4.40;99.90;;;;;;4995106;28;20061;-83
2023/12/01 06:12:44;;;;;;;32.75;12.88;;;-4.40;99.90;;;;;;4979117;28;20050;-83
2023/12/01 06:15:13;;;;;;;32.30;13.85;;;-4.40;99.90;;;;;;4994438;28;20054;-83
2023/12/01 06:17:46;;;;;;;29.88;12.52;;;-4.40;99.90;;;;;;4993183;28;20505;-83
2023/12/01 06:20:19;;;;;;;30.02;12.65;;;-4.40;99.90;;;;;;4992989;28;20038;-83
2023/12/01 06:22:50;;;;;;;30.45;12.27;;;-3.70;99.90;;;;;;5007387;28;20045;-83
2023/12/01 06:25:18;;;;;;;28.75;12.45;;;-3.40;99.90;;;;;;4994955;28;20057;-83
2023/12/01 06:27:44;;;;;;;30.45;12.95;;;-4.50;99.90;;;;;;4995260;28;20104;-83
2023/12/01 06:30:12;;;;;;;31.08;12.68;;;-4.50;99.90;;;;;;4994723;28;20069;-83
2023/12/01 06:32:45;;;;;;;30.08;12.80;;;-4.50;99.90;;;;;;4994977;28;20104;-82
2023/12/01 06:35:16;;;;;;;31.00;13.25;;;-4.50;99.90;;;;;;4994955;28;20073;-82
2023/12/01 06:37:43;;;;;;;34.33;13.20;;;-4.50;99.90;;;;;;4994629;28;20077;-82
2023/12/01 06:40:12;;;;;;;31.67;13.55;;;-3.60;99.90;;;;;;4994986;28;20046;-83
2023/12/01 06:42:43;;;;;;;31.75;12.65;;;-4.50;99.90;;;;;;4995105;28;20049;-82
2023/12/01 06:45:10;;;;;;;31.95;14.23;;;-4.60;99.90;;;;;;5011835;28;20034;-83
2023/12/01 06:47:37;;;;;;;31.05;13.00;;;-3.50;99.90;;;;;;5012462;28;20141;-83
2023/12/01 06:50:03;;;;;;;29.65;12.02;;;-4.60;99.90;;;;;;5012490;28;20388;-82
2023/12/01 06:52:29;;;;;;;27.98;12.43;;;-4.60;99.90;;;;;;4994109;28;20165;-82
2023/12/01 06:54:54;;;;;;;32.67;12.57;;;-4.60;99.90;;;;;;5003681;28;20050;-82
2023/12/01 06:57:20;;;;;;;30.50;13.48;;;-4.60;99.90;;;;;;4998300;28;20395;-83
2023/12/01 06:59:45;;;;;;;33.50;12.75;;;-4.60;99.90;;;;;;4997165;28;20092;-82
2023/12/01 07:02:17;;;;;;;30.45;12.70;;;-4.70;99.90;;;;;;4998175;28;20454;-83
2023/12/01 07:04:44;;;;;;;28.80;12.43;;;-4.70;99.90;;;;;;4998462;28;20516;-85
2023/12/01 07:07:12;;;;;;;35.97;13.32;;;-4.30;99.90;;;;;;4998478;28;20038;-83
2023/12/01 07:09:38;;;;;;;34.30;14.15;;;-4.40;99.90;;;;;;4998214;28;20050;-84
2023/12/01 07:12:05;;;;;;;37.50;13.77;;;-4.80;99.90;;;;;;4998485;28;20445;-84
2023/12/01 07:14:31;;;;;;;37.58;14.15;;;-4.70;99.90;;;;;;4982112;28;20050;-85
2023/12/01 07:16:56;;;;;;;35.83;14.95;;;-3.80;99.90;;;;;;5000070;28;20046;-83
2023/12/01 07:19:22;;;;;;;36.00;14.43;;;-4.60;99.90;;;;;;4981506;28;20059;-84
2023/12/01 07:21:48;;;;;;;39.28;15.00;;;-4.60;99.90;;;;;;4998356;28;20049;-85
2023/12/01 07:24:14;;;;;;;39.05;14.98;;;-4.60;99.90;;;;;;4997946;28;20371;-83
2023/12/01 07:26:39;;;;;;;33.92;15.75;;;-4.60;99.90;;;;;;4997808;28;20048;-85
2023/12/01 07:29:06;;;;;;;40.58;15.57;;;-4.60;99.90;;;;;;4997873;28;20525;-87
2023/12/01 07:31:35;;;;;;;43.10;16.90;;;-4.60;99.90;;;;;;4982193;28;20045;-85
2023/12/01 07:34:01;;;;;;;37.53;13.95;;;-4.60;99.90;;;;;;5015514;28;20038;-85
2023/12/01 07:36:28;;;;;;;42.92;15.68;;;-4.60;99.90;;;;;;4981433;28;20407;-85
2023/12/01 07:38:54;;;;;;;33.72;14.65;;;-4.70;99.90;;;;;;4998172;28;20112;-84
2023/12/01 07:41:21;;;;;;;34.65;13.60;;;-3.30;99.90;;;;;;4997004;28;20115;-84
2023/12/01 07:43:47;;;;;;;35.75;14.57;;;-4.60;99.90;;;;;;4997900;28;20165;-83
2023/12/01 07:46:13;;;;;;;36.85;14.32;;;-4.60;99.90;;;;;;4997718;28;20052;-82
2023/12/01 07:48:38;;;;;;;30.60;13.15;;;-4.60;99.90;;;;;;5014652;28;20125;-83
2023/12/01 07:51:04;;;;;;;36.42;14.50;;;-4.60;99.90;;;;;;5015485;28;20037;-83
2023/12/01 07:53:30;;;;;;;42.08;16.15;;;-4.50;99.90;;;;;;5015272;28;20506;-82
2023/12/01 07:55:55;;;;;;;38.55;15.40;;;-3.60;99.90;;;;;;4997556;28;20053;-82
2023/12/01 07:58:21;;;;;;;38.95;15.10;;;-4.50;99.90;;;;;;5014832;28;20163;-83
2023/12/01 08:00:47;;;;;;;40.20;15.52;;;-4.50;99.90;;;;;;4996500;28;20399;-83
2023/12/01 08:03:13;;;;;;;39.28;15.45;;;-4.50;99.90;;;;;;5009930;28;20137;-83
2023/12/01 08:05:39;;;;;;;33.92;13.77;;;-4.50;99.90;;;;;;5001295;28;20077;-83
2023/12/01 08:08:06;;;;;;;39.30;15.63;;;-4.40;99.90;;;;;;4995062;28;20042;-83
2023/12/01 08:10:32;;;;;;;36.03;14.70;;;-4.40;99.90;;;;;;4980164;28;20038;-83
2023/12/01 08:12:58;;;;;;;36.80;13.93;;;-4.30;99.90;;;;;;4996044;28;20478;-83
2023/12/01 08:15:24;;;;;;;42.10;15.70;;;-3.30;99.90;;;;;;4996873;28;20049;-82
2023/12/01 08:17:49;;;;;;;34.05;13.85;;;-4.20;99.90;;;;;;5014630;28;20049;-83
2023/12/01 08:20:18;;;;;;;34.78;13.95;;;-4.20;99.90;;;;;;4996867;28;20392;-82
2023/12/01 08:22:46;;;;;;;42.15;15.68;;;-4.10;99.90;;;;;;4996146;28;20081;-83
2023/12/01 08:25:12;;;;;;;41.35;15.85;;;-4.10;99.90;;;;;;4979519;28;20045;-82
2023/12/01 08:27:39;;;;;;;41.60;14.45;;;-4.00;99.90;;;;;;5014421;28;20403;-82
2023/12/01 08:30:06;;;;;;;36.25;14.70;;;-4.00;99.90;;;;;;4996147;28;20042;-84
2023/12/01 08:32:32;;;;;;;39.80;14.85;;;-4.00;99.90;;;;;;4987236;28;20130;-85
2023/12/01 08:34:58;;;;;;;43.17;16.05;;;-4.00;99.90;;;;;;4990946;28;20050;-84
2023/12/01 08:37:23;;;;;;;37.28;14.82;;;-4.00;99.90;;;;;;4996822;28;20052;-83
2023/12/01 08:39:50;;;;;;;38.28;14.43;;;-2.60;99.90;;;;;;5012963;28;20034;-83
2023/12/01 08:42:16;;;;;;;39.25;15.40;;;-4.00;99.90;;;;;;4996727;28;20132;-83
2023/12/01 08:44:42;;;;;;;36.00;14.48;;;-3.80;99.90;;;;;;4980146;28;20050;-84
2023/12/01 08:47:08;;;;;;;40.55;16.00;;;-2.30;99.90;;;;;;5013345;28;20048;-83
2023/12/01 08:49:35;;;;;;;39.25;16.20;;;-2.90;99.90;;;;;;4996166;28;20042;-83
2023/12/01 08:52:01;;;;;;;36.05;14.70;;;-3.60;99.90;;;;;;4996143;28;20077;-84
2023/12/01 08:54:27;;;;;;;39.38;15.52;;;-2.90;99.90;;;;;;4996532;28;20446;-84
2023/12/01 08:56:53;;;;;;;38.85;15.52;;;-3.60;99.90;;;;;;4996346;28;20046;-84
2023/12/01 08:59:19;;;;;;;36.88;15.63;;;-3.40;99.90;;;;;;4996350;28;20053;-83
2023/12/01 09:01:44;;;;;;;37.17;16.52;;;-3.40;99.90;;;;;;5013688;28;20058;-84
2023/12/01 09:04:10;;;;;;;38.75;17.23;;;-3.40;99.90;;;;;;4996408;28;20442;-84
2023/12/01 09:06:38;;;;;;;36.20;15.05;;;-3.40;99.90;;;;;;4995450;28;20613;-84
2023/12/01 09:09:05;;;;;;;35.63;15.57;;;-3.30;99.90;;;;;;4982913;28;20049;-83
2023/12/01 09:11:30;;;;;;;35.38;14.48;;;-3.20;99.90;;;;;;4978011;28;20553;-83
2023/12/01 09:13:56;;;;;;;37.17;16.35;;;-2.20;99.90;;;;;;4992475;28;20081;-83
2023/12/01 09:16:23;;;;;;;33.38;15.40;;;-2.60;99.90;;;;;;4994960;28;20077;-86
2023/12/01 09:18:50;;;;;;;35.60;14.95;;;-0.60;99.90;;;;;;5011945;28;20046;-83
2023/12/01 09:21:16;;;;;;;34.22;15.32;;;-3.00;99.90;;;;;;4982071;28;20509;-83
2023/12/01 09:23:42;;;;;;;32.20;14.60;;;-2.90;99.90;;;;;;5011875;28;20042;-84
2023/12/01 09:26:08;;;;;;;34.50;15.02;;;-2.90;99.90;;;;;;4995615;28;20046;-85
2023/12/01 09:28:34;;;;;;;32.53;15.02;;;-2.40;99.90;;;;;;4979394;28;20398;-84
2023/12/01 09:31:03;;;;;;;28.25;13.55;;;-2.70;99.90;;;;;;5013262;28;20056;-84
2023/12/01 09:33:30;;;;;;;33.70;15.27;;;-2.70;99.90;;;;;;4987783;28;20050;-85
2023/12/01 09:35:56;;;;;;;33.15;14.50;;;-2.60;99.90;;;;;;4976246;28;20460;-84
2023/12/01 09:38:21;;;;;;;30.38;13.85;;;-2.60;99.90;;;;;;4976340;28;20386;-85
2023/12/01 09:40:47;;;;;;;32.60;15.13;;;-2.50;99.90;;;;;;4995172;28;20124;-83
2023/12/01 09:43:17;;;;;;;31.38;13.68;;;-2.40;99.90;;;;;;5013134;28;20041;-84
2023/12/01 09:45:44;;;;;;;30.23;13.98;;;-0.40;99.90;;;;;;4994784;28;20053;-84
2023/12/01 09:48:11;;;;;;;28.73;13.50;;;-2.30;99.90;;;;;;4995298;28;20049;-87
2023/12/01 09:50:37;;;;;;;31.30;13.57;;;-1.30;99.90;;;;;;4995186;28;20048;-84
2023/12/01 09:53:04;;;;;;;30.88;13.70;;;;;;;;;;4995467;28;20049;-84
2023/12/01 09:55:33;;;;;;;32.72;14.70;;;-2.20;99.90;;;;;;4994742;28;20503;-84
2023/12/01 09:57:59;;;;;;;29.67;13.90;;;-1.90;99.90;;;;;;4995263;28;20041;-86
2023/12/01 10:00:25;;;;;;;31.48;15.23;;;-2.10;99.90;;;;;;4994794;28;20550;-86
2023/12/01 10:02:51;;;;;;;30.00;13.32;;;-2.10;99.90;;;;;;4989615;28;20060;-84
2023/12/01 10:05:20;;;;;;;29.60;13.93;;;-2.10;99.90;;;;;;4995022;28;20395;-84
2023/12/01 10:07:48;;;;;;;32.42;13.85;;;-1.40;99.90;;;;;;4995197;28;20053;-84
2023/12/01 10:10:22;;;;;;;36.00;15.20;;;-2.10;99.90;;;;;;4994930;28;20041;-84
2023/12/01 10:13:04;;;;;;;27.30;13.77;;;-2.00;99.90;;;;;;4995319;28;20108;-85
2023/12/01 10:15:32;;;;;;;30.30;14.32;;;-1.00;99.90;;;;;;5012546;28;20104;-83
2023/12/01 10:18:11;;;;;;;29.33;13.63;;;-1.50;99.90;;;;;;4994415;28;20045;-84
2023/12/01 10:20:39;;;;;;;30.40;14.50;;;-1.00;99.90;;;;;;4982849;28;20518;-84
2023/12/01 10:23:19;;;;;;;30.23;13.95;;;-1.00;99.90;;;;;;4975576;28;20125;-84
2023/12/01 10:25:49;;;;;;;33.35;14.70;;;-1.80;99.90;;;;;;4993967;28;20070;-84
2023/12/01 10:28:18;;;;;;;30.23;14.75;;;-1.20;99.90;;;;;;4960910;28;20038;-87
2023/12/01 10:30:53;;;;;;;31.30;15.13;;;-1.70;99.90;;;;;;4979129;28;20054;-83
2023/12/01 10:33:21;;;;;;;31.52;15.55;;;-1.70;99.90;;;;;;4995409;28;20192;-83
2023/12/01 10:36:03;;;;;;;34.45;15.23;;;-1.70;99.90;;;;;;4979568;28;20472;-84
2023/12/01 10:38:36;;;;;;;29.88;14.52;;;-1.50;99.90;;;;;;4979288;28;20049;-84
2023/12/01 10:41:03;;;;;;;28.92;13.70;;;-1.60;99.90;;;;;;4979617;28;20430;-84
2023/12/01 10:43:30;;;;;;;27.42;13.35;;;-1.50;99.90;;;;;;4979640;28;20042;-84
2023/12/01 10:46:04;;;;;;;32.25;13.55;;;-0.70;99.90;;;;;;4979429;28;20061;-84
2023/12/01 10:48:32;;;;;;;28.70;14.10;;;-1.50;99.90;;;;;;4996675;28;20510;-83
2023/12/01 10:51:00;;;;;;;35.80;15.85;;;-1.40;99.90;;;;;;4979325;28;20047;-84
2023/12/01 10:53:28;;;;;;;28.95;14.13;;;-0.60;99.90;;;;;;4978964;28;20081;-84
2023/12/01 10:55:55;;;;;;;30.23;14.48;;;-1.20;99.90;;;;;;4978981;28;20050;-84
2023/12/01 10:58:23;;;;;;;35.92;15.75;;;-0.10;99.90;;;;;;4978986;28;20050;-84
2023/12/01 11:00:49;;;;;;;30.60;15.23;;;-1.00;99.90;;;;;;4964953;28;20090;-84
2023/12/01 11:03:19;;;;;;;30.02;14.98;;;-0.90;99.90;;;;;;4996454;28;20502;-84
2023/12/01 11:05:51;;;;;;;28.92;14.30;;;-0.90;99.90;;;;;;4996423;28;20049;-84
2023/12/01 11:08:30;;;;;;;30.02;14.70;;;-0.90;99.90;;;;;;4995158;28;20411;-84
2023/12/01 11:11:11;;;;;;;27.25;13.75;;;-0.80;99.90;;;;;;4978804;28;20053;-84
2023/12/01 11:13:52;;;;;;;27.92;13.55;;;-0.90;99.90;;;;;;4995017;28;20479;-84
2023/12/01 11:16:18;;;;;;;27.20;14.15;;;-0.90;99.90;;;;;;4978739;28;20046;-84
2023/12/01 11:18:44;;;;;;;28.33;13.70;;;-0.70;99.90;;;;;;4996324;28;20050;-84
2023/12/01 11:21:10;;;;;;;27.58;14.27;;;-0.10;99.90;;;;;;4994845;28;20038;-84
2023/12/01 11:23:35;;;;;;;30.10;14.85;;;0.50;99.90;;;;;;4978637;28;20050;-84
2023/12/01 11:26:08;;;;;;;24.92;13.02;;;-0.80;99.90;;;;;;4996175;28;20034;-84
2023/12/01 11:31:14;;;;;;;28.77;14.02;;;-0.20;99.90;;;;;;4994890;28;20054;-84
2023/12/01 11:33:56;;;;;;;28.13;13.88;;;0.00;99.90;;;;;;4994548;28;20042;-84
2023/12/01 11:36:24;;;;;;;27.33;14.05;;;-0.70;99.90;;;;;;4995761;28;20065;-83
2023/12/01 11:39:11;;;;;;;25.98;13.18;;;-0.70;99.90;;;;;;4995762;28;20121;-84
2023/12/01 11:41:44;;;;;;;25.48;13.02;;;-0.70;99.90;;;;;;4994691;28;20061;-84
2023/12/01 11:44:32;;;;;;;27.58;13.23;;;0.00;99.90;;;;;;4994383;28;20042;-85
2023/12/01 11:46:59;;;;;;;28.48;14.15;;;-0.70;99.90;;;;;;4995684;28;20134;-84
2023/12/01 11:49:25;;;;;;;25.45;12.77;;;-0.60;99.90;;;;;;4978033;28;20049;-84
2023/12/01 11:51:51;;;;;;;30.90;15.38;;;0.10;99.90;;;;;;4994202;28;20042;-84
2023/12/01 11:54:17;;;;;;;29.17;14.15;;;-0.60;99.90;;;;;;4994033;28;20402;-85
2023/12/01 11:56:49;;;;;;;28.30;13.48;;;-0.40;99.90;;;;;;4994048;28;20050;-84
2023/12/01 11:59:14;;;;;;;29.33;14.25;;;0.40;99.90;;;;;;4994330;28;20130;-84
2023/12/01 12:01:40;;;;;;;29.95;14.57;;;0.00;99.90;;;;;;4995344;28;20538;-84
2023/12/01 12:04:09;;;;;;;28.98;14.10;;;-0.10;99.90;;;;;;4994028;28;20038;-84
2023/12/01 12:06:35;;;;;;;30.67;13.50;;;0.30;99.90;;;;;;4994081;28;20046;-84
2023/12/01 12:09:06;;;;;;;28.40;13.35;;;0.00;99.90;;;;;;4994062;28;20244;-84
2023/12/01 12:11:34;;;;;;;30.60;14.95;;;-0.10;99.90;;;;;;4995359;28;20050;-84
2023/12/01 12:14:01;;;;;;;29.50;13.95;;;0.00;99.90;;;;;;4995260;28;20081;-84
2023/12/01 12:16:28;;;;;;;27.35;12.93;;;-0.50;99.90;;;;;;4993759;28;20046;-84
2023/12/01 12:18:57;;;;;;;25.55;12.13;;;0.00;99.90;;;;;;4993594;28;20074;-84
2023/12/01 12:21:23;;;;;;;25.58;13.00;;;0.00;99.90;;;;;;4994948;28;20051;-84
2023/12/01 12:23:49;;;;;;;26.77;14.43;;;0.20;99.90;;;;;;4993649;28;20045;-84
2023/12/01 12:26:33;;;;;;;27.17;13.13;;;0.00;99.90;;;;;;4995285;28;20384;-84
2023/12/01 12:29:01;;;;;;;25.60;13.27;;;1.00;99.90;;;;;;4993807;28;20134;-84
2023/12/01 12:31:32;;;;;;;25.00;13.43;;;0.70;99.90;;;;;;4995038;28;20030;-84